Oakley, Idaho
Current Conditions -  °F | °C
As of 12:53 PM on Thursday 23 Oct 2014 (Local Time) from KBYI Reporting Station
Clear Clear  
Wind Chill: 61°   Ceiling: Unl
Heat Index: 61°   Visibility: 10mi
Dew Point: 34°   Wind: 9mph
Humidity: 36%   Direction: 300°WNW
Pressure: 30.11"   Gusts: NA
Location:  42.24°N, 113.88°W
Report Text: KBYI 231853Z AUTO 30008KT 10SM CLR 16/01 A3011 RMK AO2 SLP172 T01610011
Loading
Personal Weather Stations






























Interactive Weather Map
Tropical Storm Tracking
New forecast layout! Learn more

10-Day Weather Forecast

Advertisements
Track Severe Weather on mobile